Time;durP1;ratioP1;P1;durP2;ratioP2;P2;SDS_P1;SDS_P2;PMS_P1;PMS_P2;Temp;Humidity;BMP_temperature;BMP_pressure;BME280_temperature;BME280_humidity;BME280_pressure;Samples;Min_cycle;Max_cycle;Signal;HPM_P1;HPM_P2
2023/01/25 00:00:49;;;;;;;4.05;3.60;;;;;;;;;;5015725;28;20042;-86
2023/01/25 00:03:15;;;;;;;2.63;2.42;;;;;;;;;;5015881;28;20049;-87
2023/01/25 00:05:42;;;;;;;2.08;1.98;;;;;;;;;;5016081;28;20053;-87
2023/01/25 00:08:08;;;;;;;2.70;1.80;;;;;;;;;;5015833;28;20557;-87
2023/01/25 00:10:35;;;;;;;2.10;1.90;;;;;;;;;;5016169;28;20101;-87
2023/01/25 00:13:03;;;;;;;3.45;3.25;;;;;;;;;;5015535;28;20058;-87
2023/01/25 00:15:30;;;;;;;2.22;1.63;;;;;;;;;;5016102;28;20100;-87
2023/01/25 00:17:56;;;;;;;2.83;2.33;;;;;;;;;;5015642;28;20108;-86
2023/01/25 00:20:23;;;;;;;1.17;1.13;;;;;;;;;;5015318;28;20097;-87
2023/01/25 00:22:49;;;;;;;1.85;1.75;;;;;;;;;;5015380;28;20057;-87
2023/01/25 00:25:16;;;;;;;2.65;2.10;;;;;;;;;;5015342;28;20050;-87
2023/01/25 00:27:42;;;;;;;4.03;2.38;;;;;;;;;;5015760;28;20096;-87
2023/01/25 00:30:11;;;;;;;4.53;2.08;;;;;;;;;;5015895;28;20058;-87
2023/01/25 00:32:42;;;;;;;2.42;1.23;;;;;;;;;;5015302;28;20072;-87
2023/01/25 00:35:11;;;;;;;3.53;3.28;;;;;;;;;;5015620;28;20123;-87
2023/01/25 00:37:39;;;;;;;2.65;2.55;;;;;;;;;;5015336;28;20586;-87
2023/01/25 00:40:06;;;;;;;0.82;0.82;;;;;;;;;;5016071;28;20524;-87
2023/01/25 00:42:32;;;;;;;3.33;2.60;;;;;;;;;;5015277;28;20061;-88
2023/01/25 00:44:59;;;;;;;3.58;1.27;;;;;;;;;;5014768;28;20049;-87
2023/01/25 00:47:27;;;;;;;3.25;2.95;;;;;;;;;;5015200;28;20049;-87
2023/01/25 00:49:53;;;;;;;1.52;1.42;;;;;;;;;;5015168;28;20104;-87
2023/01/25 00:52:21;;;;;;;1.52;1.42;;;;;;;;;;5015125;28;20046;-87
2023/01/25 00:54:48;;;;;;;1.35;1.27;;;;;;;;;;5015184;28;20112;-87
2023/01/25 00:57:14;;;;;;;1.92;1.50;;;;;;;;;;5015239;28;20104;-87
2023/01/25 00:59:43;;;;;;;2.08;1.77;;;;;;;;;;5014379;28;20478;-86
2023/01/25 01:02:09;;;;;;;2.22;2.13;;;;;;;;;;5014874;28;20050;-87
2023/01/25 01:04:37;;;;;;;6.00;2.17;;;;;;;;;;5014473;28;20054;-87
2023/01/25 01:07:04;;;;;;;2.53;2.33;;;;;;;;;;5014874;28;20061;-87
2023/01/25 01:09:30;;;;;;;1.45;1.35;;;;;;;;;;5014475;28;20096;-87
2023/01/25 01:11:57;;;;;;;3.60;1.63;;;;;;;;;;5014580;28;20564;-86
2023/01/25 01:14:23;;;;;;;0.93;0.93;;;;;;;;;;5014842;28;20103;-87
2023/01/25 01:16:50;;;;;;;3.40;1.92;;;;;;;;;;5014689;28;20081;-86
2023/01/25 01:19:16;;;;;;;2.05;1.38;;;;;;;;;;5014505;28;20049;-87
2023/01/25 01:21:44;;;;;;;2.90;2.47;;;;;;;;;;5014231;28;20443;-86
2023/01/25 01:24:11;;;;;;;5.53;2.15;;;;;;;;;;5014512;28;20123;-86
2023/01/25 01:26:37;;;;;;;1.90;1.80;;;;;;;;;;5014012;28;20126;-87
2023/01/25 01:29:04;;;;;;;3.35;2.75;;;;;;;;;;5014263;28;20089;-86
2023/01/25 01:31:30;;;;;;;3.83;2.53;;;;;;;;;;5014382;28;20050;-87
2023/01/25 01:33:58;;;;;;;3.92;3.72;;;;;;;;;;5014256;28;20478;-87
2023/01/25 01:36:25;;;;;;;0.73;0.73;;;;;;;;;;5014348;28;20081;-87
2023/01/25 01:38:53;;;;;;;3.95;3.13;;;;;;;;;;5014196;28;20458;-86
2023/01/25 01:41:20;;;;;;;3.42;3.22;;;;;;;;;;5013628;28;20061;-87
2023/01/25 01:43:47;;;;;;;2.92;2.70;;;;;;;;;;5014380;28;20112;-86
2023/01/25 01:46:15;;;;;;;9.55;2.80;;;;;;;;;;5014171;28;20046;-87
2023/01/25 01:48:45;;;;;;;2.58;2.33;;;;;;;;;;5014035;28;20053;-87
2023/01/25 01:51:14;;;;;;;2.42;2.28;;;;;;;;;;5013730;28;20046;-88
2023/01/25 01:53:43;;;;;;;4.18;3.95;;;;;;;;;;5014359;28;20466;-87
2023/01/25 01:56:14;;;;;;;1.38;1.27;;;;;;;;;;5014441;28;20100;-87
2023/01/25 01:58:40;;;;;;;2.65;2.47;;;;;;;;;;5014484;28;20139;-87
2023/01/25 02:01:07;;;;;;;5.40;2.45;;;;;;;;;;5014156;28;20046;-87
2023/01/25 02:03:34;;;;;;;2.88;2.55;;;;;;;;;;5013866;28;20100;-87
2023/01/25 02:06:03;;;;;;;2.63;2.42;;;;;;;;;;5014088;28;20050;-87
2023/01/25 02:08:32;;;;;;;6.75;3.38;;;;;;;;;;5014775;28;20069;-87
2023/01/25 02:11:00;;;;;;;2.63;2.42;;;;;;;;;;5014080;28;20073;-87
2023/01/25 02:13:28;;;;;;;4.18;3.47;;;;;;;;;;5014241;28;20050;-87
2023/01/25 02:15:56;;;;;;;5.13;4.05;;;;;;;;;;5014195;28;20077;-87
2023/01/25 02:18:23;;;;;;;3.03;2.70;;;;;;;;;;5013681;28;20148;-86
2023/01/25 02:20:51;;;;;;;3.42;2.58;;;;;;;;;;5014291;28;20057;-87
2023/01/25 02:23:20;;;;;;;2.45;2.22;;;;;;;;;;5013825;28;20096;-87
2023/01/25 02:25:48;;;;;;;3.20;3.00;;;;;;;;;;5014060;28;20084;-87
2023/01/25 02:28:18;;;;;;;1.88;1.73;;;;;;;;;;5013688;28;20050;-87
2023/01/25 02:30:45;;;;;;;1.52;1.42;;;;;;;;;;5013511;28;20100;-87
2023/01/25 02:33:11;;;;;;;1.98;1.83;;;;;;;;;;5013516;28;20050;-87
2023/01/25 02:35:40;;;;;;;3.25;2.20;;;;;;;;;;5014036;28;20046;-87
2023/01/25 02:38:07;;;;;;;2.03;1.83;;;;;;;;;;5013377;28;20458;-86
2023/01/25 02:40:36;;;;;;;1.45;1.35;;;;;;;;;;5013852;28;20096;-87
2023/01/25 02:43:04;;;;;;;2.95;2.55;;;;;;;;;;5013776;28;20058;-87
2023/01/25 02:45:30;;;;;;;4.35;2.13;;;;;;;;;;5013711;28;20480;-87
2023/01/25 02:47:57;;;;;;;1.55;1.38;;;;;;;;;;5013801;28;20485;-84
2023/01/25 02:50:23;;;;;;;2.10;1.90;;;;;;;;;;5015866;28;20046;-87
2023/01/25 02:52:50;;;;;;;2.92;2.53;;;;;;;;;;5017105;28;20053;-87
2023/01/25 02:55:16;;;;;;;2.47;1.80;;;;;;;;;;5017088;28;20465;-86
2023/01/25 02:57:43;;;;;;;3.15;2.95;;;;;;;;;;5017448;28;20104;-86
2023/01/25 03:00:11;;;;;;;2.03;1.90;;;;;;;;;;5017050;28;20561;-85
2023/01/25 03:02:38;;;;;;;2.35;1.90;;;;;;;;;;5017064;28;20080;-85
2023/01/25 03:05:05;;;;;;;2.35;2.15;;;;;;;;;;5016895;28;20054;-86
2023/01/25 03:07:31;;;;;;;3.35;3.15;;;;;;;;;;5016912;28;20054;-86
2023/01/25 03:09:58;;;;;;;3.22;2.38;;;;;;;;;;5016851;28;20046;-85
2023/01/25 03:12:24;;;;;;;1.55;1.45;;;;;;;;;;5016862;28;20053;-86
2023/01/25 03:14:51;;;;;;;1.75;1.65;;;;;;;;;;5016699;28;20050;-85
2023/01/25 03:17:19;;;;;;;2.30;2.10;;;;;;;;;;5016924;28;20114;-86
2023/01/25 03:19:45;;;;;;;2.50;1.98;;;;;;;;;;5016936;28;20100;-85
2023/01/25 03:22:12;;;;;;;1.60;1.48;;;;;;;;;;5016619;28;20045;-86
2023/01/25 03:24:38;;;;;;;6.57;2.03;;;;;;;;;;5016873;28;20050;-86
2023/01/25 03:27:12;;;;;;;2.65;1.88;;;;;;;;;;5016168;28;20104;-85
2023/01/25 03:29:38;;;;;;;2.10;1.98;;;;;;;;;;5016551;28;20136;-86
2023/01/25 03:32:05;;;;;;;1.85;1.60;;;;;;;;;;5015970;28;20092;-86
2023/01/25 03:34:33;;;;;;;6.68;2.90;;;;;;;;;;5016273;28;20100;-86
2023/01/25 03:36:59;;;;;;;2.60;2.47;;;;;;;;;;5016310;28;20050;-85
2023/01/25 03:39:25;;;;;;;4.35;2.90;;;;;;;;;;5016087;28;20042;-86
2023/01/25 03:41:52;;;;;;;3.30;2.08;;;;;;;;;;5016108;28;20058;-87
2023/01/25 03:44:18;;;;;;;2.45;2.25;;;;;;;;;;5016602;28;20054;-86
2023/01/25 03:46:45;;;;;;;3.38;3.10;;;;;;;;;;5015963;28;20638;-86
2023/01/25 03:49:12;;;;;;;2.58;2.22;;;;;;;;;;5016013;28;20569;-86
2023/01/25 03:51:39;;;;;;;1.60;1.50;;;;;;;;;;5016065;28;20042;-86
2023/01/25 03:54:07;;;;;;;2.55;1.35;;;;;;;;;;5016406;28;20045;-86
2023/01/25 03:56:33;;;;;;;1.52;1.45;;;;;;;;;;5015621;28;20089;-86
2023/01/25 03:59:00;;;;;;;2.63;2.42;;;;;;;;;;5016171;28;20054;-86
2023/01/25 04:01:26;;;;;;;1.60;1.50;;;;;;;;;;5015425;28;20454;-86
2023/01/25 04:03:53;;;;;;;2.25;2.15;;;;;;;;;;5016351;28;20068;-86
2023/01/25 04:06:19;;;;;;;2.90;2.78;;;;;;;;;;5015989;28;20050;-86
2023/01/25 04:08:47;;;;;;;5.53;3.58;;;;;;;;;;5016167;28;20050;-86
2023/01/25 04:11:14;;;;;;;2.03;1.90;;;;;;;;;;5015744;28;20057;-85
2023/01/25 04:13:40;;;;;;;1.88;1.65;;;;;;;;;;5016183;28;20104;-86
2023/01/25 04:16:07;;;;;;;1.52;1.42;;;;;;;;;;5015528;28;20057;-86
2023/01/25 04:18:34;;;;;;;2.67;2.47;;;;;;;;;;5015765;28;20045;-86
2023/01/25 04:21:00;;;;;;;2.08;1.98;;;;;;;;;;5015694;28;20054;-86
2023/01/25 04:23:27;;;;;;;3.88;2.28;;;;;;;;;;5015796;28;20050;-86
2023/01/25 04:25:56;;;;;;;1.83;1.60;;;;;;;;;;5015892;28;20466;-86
2023/01/25 04:28:22;;;;;;;2.75;2.25;;;;;;;;;;5015803;28;20050;-86
2023/01/25 04:30:49;;;;;;;6.75;2.40;;;;;;;;;;5015812;28;20079;-86
2023/01/25 04:33:15;;;;;;;4.78;1.42;;;;;;;;;;5015808;28;20042;-86
2023/01/25 04:35:41;;;;;;;2.00;1.90;;;;;;;;;;5015411;28;20058;-86
2023/01/25 04:38:09;;;;;;;4.75;3.28;;;;;;;;;;5014774;28;20507;-86
2023/01/25 04:40:36;;;;;;;2.67;2.47;;;;;;;;;;5015056;28;20484;-86
2023/01/25 04:43:05;;;;;;;2.50;2.00;;;;;;;;;;5014793;28;20057;-86
2023/01/25 04:45:32;;;;;;;6.85;3.20;;;;;;;;;;5015445;28;20050;-86
2023/01/25 04:47:59;;;;;;;3.67;3.38;;;;;;;;;;5015380;28;20672;-86
2023/01/25 04:50:26;;;;;;;3.95;3.60;;;;;;;;;;5017118;28;20458;-86
2023/01/25 04:52:52;;;;;;;2.10;1.50;;;;;;;;;;5016022;28;20054;-86
2023/01/25 04:55:19;;;;;;;2.67;2.15;;;;;;;;;;5015207;28;20046;-87
2023/01/25 04:57:48;;;;;;;1.48;1.23;;;;;;;;;;5015454;28;20107;-86
2023/01/25 05:00:17;;;;;;;3.70;3.30;;;;;;;;;;5014794;28;20045;-86
2023/01/25 05:02:43;;;;;;;4.22;3.67;;;;;;;;;;5015095;28;20096;-86
2023/01/25 05:05:10;;;;;;;3.85;3.10;;;;;;;;;;5014535;28;20192;-86
2023/01/25 05:07:37;;;;;;;3.38;3.17;;;;;;;;;;5015033;28;20053;-86
2023/01/25 05:10:03;;;;;;;2.63;2.35;;;;;;;;;;5014876;28;20107;-86
2023/01/25 05:12:30;;;;;;;3.10;2.58;;;;;;;;;;5014169;28;20049;-86
2023/01/25 05:14:57;;;;;;;11.02;5.65;;;;;;;;;;5014458;28;20046;-86
2023/01/25 05:17:25;;;;;;;4.97;3.58;;;;;;;;;;5014818;28;20050;-86
2023/01/25 05:19:51;;;;;;;1.48;1.38;;;;;;;;;;5014504;28;20050;-86
2023/01/25 05:22:19;;;;;;;2.85;2.30;;;;;;;;;;5014686;28;20104;-86
2023/01/25 05:24:46;;;;;;;3.10;2.63;;;;;;;;;;5014698;28;20049;-86
2023/01/25 05:27:13;;;;;;;2.80;2.60;;;;;;;;;;5014748;28;20120;-86
2023/01/25 05:29:40;;;;;;;9.25;4.32;;;;;;;;;;5014525;28;20084;-86
2023/01/25 05:32:07;;;;;;;2.95;1.98;;;;;;;;;;5014480;28;20096;-86
2023/01/25 05:34:35;;;;;;;1.52;1.50;;;;;;;;;;5014836;28;20054;-86
2023/01/25 05:37:03;;;;;;;1.75;1.50;;;;;;;;;;5014420;28;20045;-86
2023/01/25 05:39:30;;;;;;;2.83;1.80;;;;;;;;;;5014737;28;20462;-86
2023/01/25 05:41:56;;;;;;;4.40;2.85;;;;;;;;;;5013954;28;20104;-87
2023/01/25 05:44:23;;;;;;;1.50;1.25;;;;;;;;;;5014262;28;20046;-86
2023/01/25 05:46:50;;;;;;;1.75;1.60;;;;;;;;;;5014384;28;20057;-86
2023/01/25 05:49:16;;;;;;;2.95;1.70;;;;;;;;;;5014168;28;20491;-86
2023/01/25 05:51:44;;;;;;;2.53;2.22;;;;;;;;;;5014029;28;20046;-86
2023/01/25 05:54:13;;;;;;;9.15;2.25;;;;;;;;;;5015211;28;20104;-86
2023/01/25 05:56:39;;;;;;;2.80;2.55;;;;;;;;;;5014132;28;20056;-86
2023/01/25 05:59:06;;;;;;;10.98;4.05;;;;;;;;;;5014439;28;20049;-86
2023/01/25 06:01:33;;;;;;;2.63;2.42;;;;;;;;;;5014392;28;20496;-86
2023/01/25 06:04:00;;;;;;;3.45;3.15;;;;;;;;;;5013983;28;20112;-86
2023/01/25 06:06:26;;;;;;;4.25;2.67;;;;;;;;;;5013860;28;20069;-85
2023/01/25 06:08:54;;;;;;;1.70;1.60;;;;;;;;;;5014021;28;20491;-85
2023/01/25 06:11:21;;;;;;;1.88;1.77;;;;;;;;;;5013527;28;20057;-86
2023/01/25 06:13:48;;;;;;;1.17;1.10;;;;;;;;;;5014470;28;20050;-87
2023/01/25 06:16:15;;;;;;;2.13;1.63;;;;;;;;;;5013828;28;20058;-85
2023/01/25 06:18:41;;;;;;;1.98;1.88;;;;;;;;;;5014461;28;20470;-86
2023/01/25 06:21:08;;;;;;;1.75;1.65;;;;;;;;;;5014010;28;20127;-86
2023/01/25 06:23:34;;;;;;;3.03;2.00;;;;;;;;;;5015127;28;20116;-86
2023/01/25 06:26:03;;;;;;;3.45;3.15;;;;;;;;;;5017627;28;20049;-86
2023/01/25 06:28:31;;;;;;;4.00;2.78;;;;;;;;;;5017835;28;20458;-86
2023/01/25 06:31:02;;;;;;;2.97;1.80;;;;;;;;;;5017912;28;20129;-86
2023/01/25 06:33:29;;;;;;;4.80;2.75;;;;;;;;;;5017481;28;20053;-86
2023/01/25 06:35:59;;;;;;;2.47;2.25;;;;;;;;;;5015474;28;20107;-86
2023/01/25 06:38:25;;;;;;;2.05;1.95;;;;;;;;;;5017923;28;20050;-87
2023/01/25 06:40:52;;;;;;;2.55;2.35;;;;;;;;;;5017843;28;20093;-86
2023/01/25 06:43:20;;;;;;;1.77;1.67;;;;;;;;;;5017322;28;20057;-87
2023/01/25 06:45:46;;;;;;;2.75;2.55;;;;;;;;;;5017210;28;20054;-87
2023/01/25 06:48:13;;;;;;;5.88;2.08;;;;;;;;;;5018215;28;20100;-87
2023/01/25 06:50:39;;;;;;;1.98;1.88;;;;;;;;;;5017421;28;20053;-87
2023/01/25 06:53:06;;;;;;;2.03;1.92;;;;;;;;;;5017400;28;20559;-88
2023/01/25 06:55:32;;;;;;;2.88;2.63;;;;;;;;;;5017559;28;20054;-88
2023/01/25 06:58:00;;;;;;;3.15;2.58;;;;;;;;;;5017545;28;20046;-87
2023/01/25 07:00:32;;;;;;;3.10;2.90;;;;;;;;;;5017597;28;20050;-88
2023/01/25 07:02:58;;;;;;;2.65;2.45;;;;;;;;;;5023539;28;20093;-87
2023/01/25 07:05:25;;;;;;;2.90;2.47;;;;;;;;;;5017527;28;20058;-88
2023/01/25 07:07:51;;;;;;;4.07;3.00;;;;;;;;;;5017407;28;20053;-87
2023/01/25 07:10:18;;;;;;;4.28;2.70;;;;;;;;;;5017121;28;20495;-87
2023/01/25 07:12:44;;;;;;;3.22;2.45;;;;;;;;;;5016871;28;20054;-88
2023/01/25 07:15:11;;;;;;;3.08;2.42;;;;;;;;;;5016713;28;20050;-88
2023/01/25 07:17:39;;;;;;;3.83;1.92;;;;;;;;;;5017041;28;20042;-87
2023/01/25 07:20:06;;;;;;;0.98;0.98;;;;;;;;;;5016474;28;20061;-87
2023/01/25 07:22:34;;;;;;;1.73;1.63;;;;;;;;;;5017270;28;20111;-87
2023/01/25 07:25:01;;;;;;;1.65;1.55;;;;;;;;;;5016420;28;20553;-87
2023/01/25 07:27:27;;;;;;;4.22;2.22;;;;;;;;;;5016595;28;20057;-87
2023/01/25 07:29:54;;;;;;;4.45;4.15;;;;;;;;;;5016700;28;20502;-87
2023/01/25 07:32:20;;;;;;;1.58;1.42;;;;;;;;;;5016425;28;20046;-87
2023/01/25 07:34:48;;;;;;;1.70;1.60;;;;;;;;;;5015500;28;20491;-86
2023/01/25 07:37:14;;;;;;;1.75;1.65;;;;;;;;;;5015863;28;20045;-86
2023/01/25 07:39:46;;;;;;;2.17;2.00;;;;;;;;;;5016398;28;20444;-87
2023/01/25 07:42:13;;;;;;;1.63;1.52;;;;;;;;;;5016283;28;20409;-86
2023/01/25 07:44:40;;;;;;;2.53;2.42;;;;;;;;;;5016570;28;20454;-86
2023/01/25 07:47:06;;;;;;;2.28;2.08;;;;;;;;;;5016765;28;20053;-87
2023/01/25 07:49:33;;;;;;;2.22;2.05;;;;;;;;;;5016447;28;20479;-87
2023/01/25 07:52:01;;;;;;;2.92;2.58;;;;;;;;;;5016109;28;20050;-87
2023/01/25 07:54:27;;;;;;;5.50;2.05;;;;;;;;;;5016470;28;20058;-87
2023/01/25 07:56:54;;;;;;;1.55;1.42;;;;;;;;;;5016105;28;20081;-87
2023/01/25 07:59:20;;;;;;;1.27;0.98;;;;;;;;;;5015904;28;20050;-88
2023/01/25 08:01:47;;;;;;;2.72;2.50;;;;;;;;;;5015996;28;20100;-87
2023/01/25 08:04:13;;;;;;;2.30;2.10;;;;;;;;;;5015982;28;20121;-87
2023/01/25 08:06:39;;;;;;;2.58;2.10;;;;;;;;;;5016161;28;20096;-87
2023/01/25 08:09:08;;;;;;;2.03;1.85;;;;;;;;;;5015912;28;20046;-87
2023/01/25 08:11:35;;;;;;;4.45;1.77;;;;;;;;;;5016085;28;20061;-86
2023/01/25 08:14:02;;;;;;;2.13;2.03;;;;;;;;;;5016066;28;20050;-85
2023/01/25 08:16:29;;;;;;;1.92;1.83;;;;;;;;;;5015735;28;20099;-84
2023/01/25 08:18:56;;;;;;;2.55;2.08;;;;;;;;;;5015446;28;20054;-84
2023/01/25 08:21:24;;;;;;;1.75;1.65;;;;;;;;;;5013626;28;20042;-84
2023/01/25 08:23:51;;;;;;;4.30;2.88;;;;;;;;;;5015362;28;20042;-86
2023/01/25 08:26:19;;;;;;;7.07;3.53;;;;;;;;;;4995656;28;20455;-85
2023/01/25 08:28:46;;;;;;;1.98;1.65;;;;;;;;;;4995704;28;20153;-85
2023/01/25 08:31:14;;;;;;;1.70;1.58;;;;;;;;;;4995410;28;20054;-86
2023/01/25 08:33:41;;;;;;;1.17;1.13;;;;;;;;;;4995437;28;20093;-86
2023/01/25 08:36:08;;;;;;;5.82;2.03;;;;;;;;;;4995461;28;20480;-85
2023/01/25 08:38:35;;;;;;;3.90;2.10;;;;;;;;;;4995794;28;20133;-86
2023/01/25 08:41:04;;;;;;;2.75;2.55;;;;;;;;;;4995302;28;20054;-85
2023/01/25 08:43:32;;;;;;;2.47;2.28;;;;;;;;;;4995164;28;20101;-85
2023/01/25 08:45:59;;;;;;;2.75;2.55;;;;;;;;;;4995418;28;20050;-85
2023/01/25 08:48:25;;;;;;;2.03;1.92;;;;;;;;;;4995341;28;20054;-86
2023/01/25 08:50:52;;;;;;;2.78;2.58;;;;;;;;;;4995360;28;20487;-85
2023/01/25 08:53:18;;;;;;;3.55;3.25;;;;;;;;;;4995157;28;20097;-85
2023/01/25 08:55:45;;;;;;;4.32;3.92;;;;;;;;;;5008854;28;20062;-85
2023/01/25 08:58:12;;;;;;;7.40;4.00;;;;;;;;;;5015578;28;20049;-85
2023/01/25 09:00:41;;;;;;;3.83;2.67;;;;;;;;;;5015044;28;20049;-86
2023/01/25 09:03:07;;;;;;;3.92;3.47;;;;;;;;;;5014311;28;20049;-85
2023/01/25 09:05:34;;;;;;;2.33;2.13;;;;;;;;;;5014778;28;20400;-85
2023/01/25 09:08:01;;;;;;;1.75;1.65;;;;;;;;;;5014302;28;20072;-85
2023/01/25 09:10:27;;;;;;;2.78;2.58;;;;;;;;;;5014275;28;20121;-84
2023/01/25 09:12:54;;;;;;;3.97;2.22;;;;;;;;;;5014423;28;20115;-87
2023/01/25 09:15:21;;;;;;;3.03;2.40;;;;;;;;;;5014602;28;20100;-88
2023/01/25 09:17:50;;;;;;;3.13;2.90;;;;;;;;;;5014380;28;20123;-87
2023/01/25 09:20:16;;;;;;;3.97;3.67;;;;;;;;;;5014247;28;20049;-87
2023/01/25 09:22:43;;;;;;;3.22;3.05;;;;;;;;;;5014086;28;20464;-87
2023/01/25 09:25:10;;;;;;;4.85;3.65;;;;;;;;;;5014200;28;20054;-87
2023/01/25 09:27:37;;;;;;;2.30;2.10;;;;;;;;;;5014348;28;20045;-87
2023/01/25 09:30:04;;;;;;;3.28;1.77;;;;;;;;;;5014440;28;20053;-87
2023/01/25 09:32:30;;;;;;;4.22;2.63;;;;;;;;;;5014623;28;20052;-87
2023/01/25 09:34:58;;;;;;;3.33;3.13;;;;;;;;;;5013899;28;20058;-87
2023/01/25 09:37:25;;;;;;;3.88;3.47;;;;;;;;;;5014161;28;20049;-87
2023/01/25 09:39:51;;;;;;;9.15;4.38;;;;;;;;;;5014715;28;20054;-87
2023/01/25 09:42:35;;;;;;;2.75;2.55;;;;;;;;;;5013926;28;20119;-87
2023/01/25 09:45:08;;;;;;;5.28;4.78;;;;;;;;;;5013982;28;20050;-87
2023/01/25 09:47:38;;;;;;;5.57;4.22;;;;;;;;;;5013775;28;20088;-87
2023/01/25 09:50:15;;;;;;;3.55;3.17;;;;;;;;;;5013691;28;20059;-88
2023/01/25 09:53:04;;;;;;;2.78;2.58;;;;;;;;;;5013889;28;20050;-87
2023/01/25 09:55:32;;;;;;;3.33;2.95;;;;;;;;;;5013671;28;20089;-87
2023/01/25 09:58:00;;;;;;;4.95;3.83;;;;;;;;;;5013906;28;20049;-87
2023/01/25 10:00:29;;;;;;;5.13;4.22;;;;;;;;;;5013943;28;20054;-87
2023/01/25 10:02:58;;;;;;;4.35;2.40;;;;;;;;;;5014017;28;20046;-87
2023/01/25 10:05:30;;;;;;;4.35;2.25;;;;;;;;;;5013661;28;20557;-87
2023/01/25 10:07:58;;;;;;;2.97;2.72;;;;;;;;;;5014071;28;20057;-87
2023/01/25 10:10:30;;;;;;;2.13;2.03;;;;;;;;;;5013699;28;20141;-87
2023/01/25 10:12:56;;;;;;;1.83;1.73;;;;;;;;;;5018044;28;20042;-88
2023/01/25 10:15:30;;;;;;;1.73;1.63;;;;;;;;;;5017347;28;20111;-88
2023/01/25 10:18:02;;;;;;;4.28;3.33;;;;;;;;;;5028691;28;20056;-88
2023/01/25 10:20:35;;;;;;;3.15;2.15;;;;;;;;;;5015041;28;20089;-89
2023/01/25 10:23:21;;;;;;;3.45;3.15;;;;;;;;;;5014489;28;20050;-89
2023/01/25 10:25:52;;;;;;;5.07;4.78;;;;;;;;;;5014822;28;20506;-88
2023/01/25 10:28:25;;;;;;;4.43;4.07;;;;;;;;;;5017443;28;20049;-88
2023/01/25 10:30:55;;;;;;;3.20;2.90;;;;;;;;;;5015402;28;20181;-88
2023/01/25 10:33:22;;;;;;;6.03;3.10;;;;;;;;;;5018275;28;20050;-87
2023/01/25 10:35:52;;;;;;;5.30;2.60;;;;;;;;;;5017585;28;20058;-88
2023/01/25 10:38:21;;;;;;;3.28;1.83;;;;;;;;;;5014396;28;20509;-88
2023/01/25 10:40:50;;;;;;;5.22;2.40;;;;;;;;;;5013492;28;20100;-88
2023/01/25 10:43:18;;;;;;;4.18;3.35;;;;;;;;;;5012257;28;20066;-87
2023/01/25 10:45:45;;;;;;;2.83;2.63;;;;;;;;;;5013523;28;20049;-87
2023/01/25 10:48:14;;;;;;;4.18;3.78;;;;;;;;;;5013075;28;20096;-87
2023/01/25 10:50:49;;;;;;;3.83;2.72;;;;;;;;;;5013130;28;20573;-87
2023/01/25 10:53:27;;;;;;;2.63;2.42;;;;;;;;;;5013448;28;20042;-87
2023/01/25 10:55:55;;;;;;;2.05;1.92;;;;;;;;;;5013291;28;20054;-88
2023/01/25 10:58:32;;;;;;;2.17;1.98;;;;;;;;;;5013836;28;20107;-87
2023/01/25 11:00:59;;;;;;;3.72;3.38;;;;;;;;;;5013631;28;20077;-87
2023/01/25 11:03:33;;;;;;;2.78;2.38;;;;;;;;;;5013428;28;20100;-87
2023/01/25 11:05:59;;;;;;;4.03;3.38;;;;;;;;;;5013439;28;20050;-88
2023/01/25 11:08:33;;;;;;;3.42;3.13;;;;;;;;;;5013427;28;20046;-87
2023/01/25 11:11:00;;;;;;;4.20;1.60;;;;;;;;;;5014492;28;20050;-88
2023/01/25 11:13:28;;;;;;;3.53;2.33;;;;;;;;;;5016744;28;20053;-87
2023/01/25 11:15:56;;;;;;;3.58;2.47;;;;;;;;;;5016397;28;20054;-87
2023/01/25 11:18:24;;;;;;;3.13;2.83;;;;;;;;;;5016885;28;20050;-87
2023/01/25 11:21:03;;;;;;;2.63;2.42;;;;;;;;;;5016346;28;20050;-87
2023/01/25 11:23:32;;;;;;;1.80;1.65;;;;;;;;;;5016813;28;20470;-88
2023/01/25 11:26:11;;;;;;;3.53;2.80;;;;;;;;;;5016891;28;20423;-88
2023/01/25 11:28:37;;;;;;;4.07;2.38;;;;;;;;;;5017051;28;20120;-88
2023/01/25 11:31:04;;;;;;;3.03;2.83;;;;;;;;;;5016413;28;20038;-87
2023/01/25 11:33:31;;;;;;;1.85;1.75;;;;;;;;;;5016377;28;20092;-88
2023/01/25 11:36:15;;;;;;;5.47;2.95;;;;;;;;;;5017335;28;20058;-87
2023/01/25 11:38:50;;;;;;;2.83;2.17;;;;;;;;;;5016775;28;20116;-88
2023/01/25 11:41:21;;;;;;;2.83;2.63;;;;;;;;;;5016262;28;20112;-87
2023/01/25 11:43:55;;;;;;;1.85;1.75;;;;;;;;;;5016301;28;20435;-87
2023/01/25 11:46:28;;;;;;;2.22;2.03;;;;;;;;;;5016151;28;20112;-87
2023/01/25 11:49:02;;;;;;;0.85;0.85;;;;;;;;;;5016829;28;20050;-87
2023/01/25 11:51:32;;;;;;;3.17;2.13;;;;;;;;;;5016229;28;20622;-88
2023/01/25 11:54:05;;;;;;;2.55;2.40;;;;;;;;;;5015942;28;20129;-88
2023/01/25 11:56:40;;;;;;;1.95;1.85;;;;;;;;;;5015664;28;20050;-87
2023/01/25 11:59:18;;;;;;;2.58;2.38;;;;;;;;;;5015771;28;20057;-87
2023/01/25 12:01:50;;;;;;;2.78;2.58;;;;;;;;;;5016049;28;20100;-87
2023/01/25 12:04:36;;;;;;;13.23;3.22;;;;;;;;;;5015931;28;20046;-87
2023/01/25 12:07:03;;;;;;;1.58;1.48;;;;;;;;;;5015956;28;20050;-88
2023/01/25 12:09:42;;;;;;;2.42;2.22;;;;;;;;;;5015680;28;20556;-88
2023/01/25 12:12:12;;;;;;;2.92;2.58;;;;;;;;;;5015715;28;20104;-87
2023/01/25 12:14:45;;;;;;;2.60;2.25;;;;;;;;;;5015568;28;20108;-88
2023/01/25 12:17:22;;;;;;;1.30;1.27;;;;;;;;;;5015399;28;20053;-88
2023/01/25 12:19:55;;;;;;;3.28;2.97;;;;;;;;;;5015174;28;20478;-87
2023/01/25 12:22:29;;;;;;;1.73;1.27;;;;;;;;;;5015222;28;20050;-88
2023/01/25 12:25:02;;;;;;;4.22;3.55;;;;;;;;;;5015177;28;20041;-88
2023/01/25 12:27:35;;;;;;;2.58;2.38;;;;;;;;;;5015320;28;20050;-88
2023/01/25 12:30:03;;;;;;;3.10;2.85;;;;;;;;;;5015129;28;20058;-88
2023/01/25 12:32:33;;;;;;;2.90;2.63;;;;;;;;;;5014685;28;20128;-85
2023/01/25 12:35:03;;;;;;;5.63;2.35;;;;;;;;;;5014937;28;20057;-85
2023/01/25 12:37:34;;;;;;;3.05;2.85;;;;;;;;;;5015340;28;20181;-85
2023/01/25 12:40:05;;;;;;;6.53;2.10;;;;;;;;;;5014584;28;20042;-86
2023/01/25 12:42:35;;;;;;;1.33;1.23;;;;;;;;;;5014716;28;20111;-86
2023/01/25 12:45:05;;;;;;;2.63;2.42;;;;;;;;;;5014807;28;20046;-85
2023/01/25 12:47:34;;;;;;;3.33;3.13;;;;;;;;;;5015138;28;20725;-86
2023/01/25 12:50:03;;;;;;;2.97;2.75;;;;;;;;;;5015297;28;20057;-87
2023/01/25 12:52:31;;;;;;;2.53;2.22;;;;;;;;;;5014515;28;20053;-86
2023/01/25 12:55:00;;;;;;;4.88;2.05;;;;;;;;;;5014655;28;20046;-85
2023/01/25 12:57:32;;;;;;;4.32;4.03;;;;;;;;;;5014816;28;20454;-86
2023/01/25 13:00:05;;;;;;;2.70;2.47;;;;;;;;;;5014687;28;20054;-86
2023/01/25 13:02:43;;;;;;;2.55;2.38;;;;;;;;;;5014873;28;20124;-85
2023/01/25 13:05:15;;;;;;;1.52;1.42;;;;;;;;;;5014133;28;20042;-86
2023/01/25 13:07:44;;;;;;;2.40;2.20;;;;;;;;;;5014852;28;20050;-85
2023/01/25 13:13:02;;;;;;;2.95;2.50;;;;;;;;;;5014581;28;20587;-86
2023/01/25 13:15:39;;;;;;;2.22;2.08;;;;;;;;;;5014912;28;20053;-86
2023/01/25 13:18:24;;;;;;;2.47;2.28;;;;;;;;;;5014433;28;20125;-86
2023/01/25 13:20:51;;;;;;;2.72;2.53;;;;;;;;;;5014411;28;20100;-85
2023/01/25 13:23:30;;;;;;;2.03;1.38;;;;;;;;;;5014591;28;20061;-86
2023/01/25 13:26:11;;;;;;;2.83;2.63;;;;;;;;;;5014214;28;20045;-86
2023/01/25 13:28:43;;;;;;;2.00;1.83;;;;;;;;;;5013969;28;20054;-85
2023/01/25 13:31:10;;;;;;;2.40;1.92;;;;;;;;;;5013972;28;20054;-85
2023/01/25 13:33:36;;;;;;;2.42;2.25;;;;;;;;;;5013599;28;20053;-85
2023/01/25 13:36:18;;;;;;;5.47;2.15;;;;;;;;;;5014057;28;20088;-85
2023/01/25 13:38:44;;;;;;;1.75;1.65;;;;;;;;;;5001622;28;20041;-85
2023/01/25 13:41:13;;;;;;;3.58;3.30;;;;;;;;;;5013966;28;20443;-85
2023/01/25 13:43:40;;;;;;;1.73;1.63;;;;;;;;;;5014591;28;20054;-85
2023/01/25 13:46:10;;;;;;;3.63;2.15;;;;;;;;;;5013795;28;20050;-85
2023/01/25 13:48:44;;;;;;;4.30;2.35;;;;;;;;;;5014405;28;20053;-86
2023/01/25 13:51:13;;;;;;;1.52;1.42;;;;;;;;;;5013968;28;20046;-85
2023/01/25 13:53:39;;;;;;;4.22;3.00;;;;;;;;;;4993878;28;20412;-85
2023/01/25 13:56:06;;;;;;;2.70;2.30;;;;;;;;;;4993940;28;20104;-85
2023/01/25 13:58:35;;;;;;;3.03;2.75;;;;;;;;;;4994376;28;20057;-85
2023/01/25 14:01:05;;;;;;;5.53;2.70;;;;;;;;;;4994012;28;20042;-85
2023/01/25 14:03:34;;;;;;;2.67;2.53;;;;;;;;;;4993779;28;20061;-85
2023/01/25 14:06:03;;;;;;;3.42;3.13;;;;;;;;;;4993913;28;20057;-85
2023/01/25 14:08:30;;;;;;;1.92;1.58;;;;;;;;;;5013806;28;20137;-85
2023/01/25 14:10:57;;;;;;;2.90;1.65;;;;;;;;;;5014019;28;20049;-86
2023/01/25 14:13:23;;;;;;;3.15;2.95;;;;;;;;;;5016663;28;20085;-86
2023/01/25 14:15:55;;;;;;;5.13;4.75;;;;;;;;;;5014215;28;20046;-85
2023/01/25 14:18:22;;;;;;;2.67;2.47;;;;;;;;;;5018153;28;20482;-84
2023/01/25 14:20:52;;;;;;;2.90;2.70;;;;;;;;;;5014793;28;20095;-86
2023/01/25 14:23:22;;;;;;;2.03;1.88;;;;;;;;;;5016851;28;20058;-85
2023/01/25 14:25:49;;;;;;;3.92;3.40;;;;;;;;;;5015650;28;20050;-85
2023/01/25 14:28:16;;;;;;;2.83;2.63;;;;;;;;;;5013919;28;20050;-85
2023/01/25 14:30:42;;;;;;;3.17;2.85;;;;;;;;;;5015552;28;20457;-86
2023/01/25 14:33:17;;;;;;;2.75;2.55;;;;;;;;;;5015754;28;20049;-85
2023/01/25 14:35:44;;;;;;;3.72;3.30;;;;;;;;;;5014955;28;20058;-85
2023/01/25 14:38:23;;;;;;;3.33;2.70;;;;;;;;;;5017830;28;20053;-85
2023/01/25 14:40:50;;;;;;;3.30;3.10;;;;;;;;;;5015138;28;20054;-87
2023/01/25 14:43:17;;;;;;;3.28;2.63;;;;;;;;;;5012599;28;20061;-86
2023/01/25 14:45:44;;;;;;;3.40;3.20;;;;;;;;;;5016886;28;20046;-86
2023/01/25 14:48:25;;;;;;;3.78;3.47;;;;;;;;;;5018722;28;20403;-86
2023/01/25 14:51:02;;;;;;;4.15;3.85;;;;;;;;;;5018944;28;20128;-87
2023/01/25 14:53:30;;;;;;;2.53;2.33;;;;;;;;;;5018508;28;20058;-87